Time;durP1;ratioP1;P1;durP2;ratioP2;P2;SDS_P1;SDS_P2;PMS_P1;PMS_P2;Temp;Humidity;BMP_temperature;BMP_pressure;BME280_temperature;BME280_humidity;BME280_pressure;Samples;Min_cycle;Max_cycle;Signal;HPM_P1;HPM_P2
2023/03/15 00:01:15;;;;;;;1.52;1.10;;;8.20;99.90;;;;;;5033641;28;20297;-89
2023/03/15 00:03:47;;;;;;;4.18;0.70;;;8.20;99.90;;;;;;5033336;28;20206;-88
2023/03/15 00:06:15;;;;;;;1.20;0.98;;;8.20;99.90;;;;;;5033566;28;20301;-88
2023/03/15 00:08:46;;;;;;;0.70;0.70;;;8.20;99.90;;;;;;5033166;28;20226;-87
2023/03/15 00:11:17;;;;;;;0.65;0.65;;;8.20;99.90;;;;;;5033366;28;20230;-87
2023/03/15 00:13:46;;;;;;;1.45;1.15;;;8.20;99.90;;;;;;5033235;28;20215;-88
2023/03/15 00:16:16;;;;;;;0.80;0.80;;;8.20;99.90;;;;;;5033046;28;20206;-88
2023/03/15 00:18:47;;;;;;;0.80;0.80;;;8.20;99.90;;;;;;5033316;28;20264;-87
2023/03/15 00:21:15;;;;;;;1.00;0.85;;;8.20;99.90;;;;;;5032127;28;20244;-87
2023/03/15 00:23:43;;;;;;;1.45;1.33;;;8.20;99.90;;;;;;5033155;28;20222;-88
2023/03/15 00:26:12;;;;;;;1.30;1.20;;;8.20;99.90;;;;;;5033636;28;20328;-88
2023/03/15 00:28:40;;;;;;;1.63;1.20;;;8.20;99.90;;;;;;5032255;28;20324;-89
2023/03/15 00:31:14;;;;;;;1.75;1.25;;;8.20;99.90;;;;;;5033340;28;20232;-88
2023/03/15 00:33:42;;;;;;;1.52;1.08;;;8.20;99.90;;;;;;5032718;28;20233;-88
2023/03/15 00:36:13;;;;;;;1.15;1.05;;;8.20;99.90;;;;;;5032792;28;20297;-87
2023/03/15 00:38:43;;;;;;;2.45;1.17;;;8.20;99.90;;;;;;5032620;28;20226;-80
2023/03/15 00:41:14;;;;;;;1.13;1.00;;;8.30;99.90;;;;;;5032648;28;20317;-80
2023/03/15 00:43:43;;;;;;;2.33;1.10;;;8.30;99.90;;;;;;5033023;28;20269;-80
2023/03/15 00:46:12;;;;;;;0.50;0.50;;;8.30;99.90;;;;;;5032637;28;20214;-88
2023/03/15 00:48:41;;;;;;;0.80;0.80;;;8.30;99.90;;;;;;5032153;28;20214;-88
2023/03/15 00:51:13;;;;;;;1.23;0.93;;;8.30;99.90;;;;;;5032690;28;20280;-88
2023/03/15 00:53:44;;;;;;;0.63;0.63;;;8.30;99.90;;;;;;5032656;28;20305;-89
2023/03/15 00:56:14;;;;;;;1.60;0.90;;;8.30;99.90;;;;;;5032873;28;20249;-88
2023/03/15 00:58:43;;;;;;;0.88;0.88;;;8.30;99.90;;;;;;5032493;28;20252;-80
2023/03/15 01:01:17;;;;;;;6.47;1.08;;;8.30;99.90;;;;;;5032118;28;20237;-80
2023/03/15 01:03:46;;;;;;;1.17;0.95;;;8.30;99.90;;;;;;5032778;28;20219;-88
2023/03/15 01:06:18;;;;;;;1.15;0.98;;;8.30;99.90;;;;;;5032289;28;20214;-88
2023/03/15 01:08:47;;;;;;;1.60;1.00;;;8.30;99.90;;;;;;5032302;28;20210;-87
2023/03/15 01:11:17;;;;;;;2.72;1.20;;;8.30;99.90;;;;;;5031645;28;20292;-87
2023/03/15 01:13:46;;;;;;;0.80;0.80;;;8.30;99.90;;;;;;5032316;28;20301;-87
2023/03/15 01:16:15;;;;;;;2.85;1.23;;;8.20;99.90;;;;;;5031770;28;20210;-88
2023/03/15 01:18:43;;;;;;;0.70;0.70;;;8.30;99.90;;;;;;5031996;28;20202;-80
2023/03/15 01:21:15;;;;;;;0.95;0.95;;;8.30;99.90;;;;;;5031983;28;20230;-88
2023/03/15 01:23:45;;;;;;;1.27;1.20;;;8.20;99.90;;;;;;5032210;28;20302;-87
2023/03/15 01:26:15;;;;;;;1.02;0.98;;;8.20;99.90;;;;;;5032174;28;20203;-80
2023/03/15 01:28:44;;;;;;;1.20;1.10;;;8.20;99.90;;;;;;5031453;28;20225;-80
2023/03/15 01:31:17;;;;;;;0.52;0.52;;;8.10;99.90;;;;;;5031709;28;20233;-80
2023/03/15 01:33:46;;;;;;;0.70;0.70;;;8.10;99.90;;;;;;5032220;28;20221;-80
2023/03/15 01:36:14;;;;;;;0.85;0.85;;;8.10;99.90;;;;;;5033048;28;20269;-80
2023/03/15 01:38:44;;;;;;;0.88;0.88;;;8.00;99.90;;;;;;5033980;28;20309;-81
2023/03/15 01:41:14;;;;;;;0.77;0.77;;;7.80;99.90;;;;;;5033902;28;20309;-81
2023/03/15 01:43:45;;;;;;;1.02;1.02;;;7.70;99.90;;;;;;5034131;28;20203;-80
2023/03/15 01:46:26;;;;;;;0.63;0.63;;;7.70;99.90;;;;;;5034365;28;20310;-81
2023/03/15 01:49:00;;;;;;;0.75;0.75;;;7.50;99.90;;;;;;5033823;28;20260;-80
2023/03/15 01:51:36;;;;;;;0.73;0.73;;;7.40;99.90;;;;;;5033912;28;20225;-80
2023/03/15 01:54:13;;;;;;;0.68;0.68;;;7.30;99.90;;;;;;5034138;28;20266;-80
2023/03/15 01:56:46;;;;;;;1.30;1.20;;;7.20;99.90;;;;;;5033711;28;20285;-80
2023/03/15 01:59:19;;;;;;;4.20;1.48;;;7.00;99.90;;;;;;5033780;28;20210;-80
2023/03/15 02:01:48;;;;;;;1.13;1.02;;;6.90;99.90;;;;;;5033828;28;20250;-80
2023/03/15 02:04:23;;;;;;;0.90;0.85;;;6.80;99.90;;;;;;5033913;28;20265;-80
2023/03/15 02:07:00;;;;;;;0.77;0.77;;;6.80;99.90;;;;;;5033568;28;20235;-80
2023/03/15 02:09:37;;;;;;;0.75;0.75;;;6.70;99.90;;;;;;5034048;28;20222;-80
2023/03/15 02:12:06;;;;;;;1.40;1.27;;;6.70;99.90;;;;;;5033815;28;20238;-80
2023/03/15 02:14:35;;;;;;;0.80;0.80;;;6.60;99.90;;;;;;5033644;28;20285;-80
2023/03/15 02:17:04;;;;;;;0.82;0.82;;;6.60;99.90;;;;;;5033167;28;20214;-80
2023/03/15 02:19:42;;;;;;;1.00;1.00;;;6.50;99.90;;;;;;5032468;28;20227;-80
2023/03/15 02:22:22;;;;;;;0.88;0.88;;;6.40;99.90;;;;;;5033420;28;20245;-80
2023/03/15 02:24:58;;;;;;;0.82;0.82;;;6.40;99.90;;;;;;5033480;28;20210;-80
2023/03/15 02:27:30;;;;;;;0.90;0.90;;;6.40;99.90;;;;;;5033139;28;20206;-80
2023/03/15 02:29:59;;;;;;;1.55;0.90;;;6.40;99.90;;;;;;5033618;28;20242;-80
2023/03/15 02:32:27;;;;;;;1.30;1.20;;;6.30;99.90;;;;;;5033388;28;20202;-80
2023/03/15 02:34:55;;;;;;;0.90;0.90;;;6.30;99.90;;;;;;5033315;28;20249;-81
2023/03/15 02:37:24;;;;;;;2.17;1.48;;;6.30;99.90;;;;;;5032914;28;20288;-81
2023/03/15 02:39:52;;;;;;;1.42;1.33;;;6.20;99.90;;;;;;5033041;28;20230;-80
2023/03/15 02:42:22;;;;;;;1.33;1.33;;;6.20;99.90;;;;;;5032832;28;20257;-81
2023/03/15 02:44:54;;;;;;;1.38;1.27;;;6.20;99.90;;;;;;5033516;28;20261;-81
2023/03/15 02:47:27;;;;;;;2.10;1.55;;;6.10;99.90;;;;;;5032325;28;20208;-81
2023/03/15 02:49:55;;;;;;;1.27;1.27;;;6.10;99.90;;;;;;5033061;28;20278;-81
2023/03/15 02:52:25;;;;;;;1.17;1.10;;;6.10;99.90;;;;;;5032808;28;20206;-81
2023/03/15 02:54:53;;;;;;;1.83;1.52;;;6.10;99.90;;;;;;5032640;28;20269;-81
2023/03/15 02:57:21;;;;;;;1.33;1.33;;;6.10;99.90;;;;;;5032434;28;20206;-81
2023/03/15 02:59:53;;;;;;;1.63;1.52;;;6.10;99.90;;;;;;5032819;28;20230;-79
2023/03/15 03:02:23;;;;;;;1.55;1.45;;;6.10;99.90;;;;;;5032532;28;20219;-89
2023/03/15 03:04:52;;;;;;;1.00;1.00;;;6.10;99.90;;;;;;5032913;28;20308;-89
2023/03/15 03:07:21;;;;;;;2.00;1.60;;;6.10;99.90;;;;;;5031791;28;20289;-88
2023/03/15 03:09:49;;;;;;;1.10;1.10;;;6.10;99.90;;;;;;5032789;28;20273;-80
2023/03/15 03:12:17;;;;;;;1.58;1.48;;;6.00;99.90;;;;;;5032665;28;20199;-81
2023/03/15 03:14:46;;;;;;;1.48;1.38;;;6.00;99.90;;;;;;5032712;28;20297;-80
2023/03/15 03:17:14;;;;;;;2.53;1.63;;;6.10;99.90;;;;;;5032399;28;20210;-80
2023/03/15 03:19:44;;;;;;;1.90;1.80;;;6.10;99.90;;;;;;5031599;28;20261;-80
2023/03/15 03:22:13;;;;;;;2.35;2.15;;;6.00;99.90;;;;;;5032739;28;20254;-81
2023/03/15 03:24:44;;;;;;;1.20;1.20;;;6.00;99.90;;;;;;5032568;28;20214;-88
2023/03/15 03:27:14;;;;;;;2.72;1.50;;;6.00;99.90;;;;;;5031973;28;20211;-89
2023/03/15 03:29:42;;;;;;;2.60;1.85;;;5.90;99.90;;;;;;5032197;28;20321;-88
2023/03/15 03:32:11;;;;;;;2.58;1.85;;;5.90;99.90;;;;;;5032925;28;20225;-88
2023/03/15 03:34:39;;;;;;;1.95;1.27;;;5.90;99.90;;;;;;5032343;28;20402;-88
2023/03/15 03:37:09;;;;;;;1.65;1.55;;;5.90;99.90;;;;;;5031413;28;20210;-88
2023/03/15 03:39:38;;;;;;;1.73;1.65;;;5.90;99.90;;;;;;5032430;28;20246;-88
2023/03/15 03:42:06;;;;;;;1.85;1.35;;;5.90;99.90;;;;;;5032007;28;20226;-89
2023/03/15 03:44:35;;;;;;;2.08;1.98;;;5.90;99.90;;;;;;5032823;28;20245;-80
2023/03/15 03:47:03;;;;;;;1.85;1.73;;;5.90;99.90;;;;;;5031907;28;20293;-80
2023/03/15 03:49:32;;;;;;;1.63;1.52;;;5.80;99.90;;;;;;5032248;28;20262;-88
2023/03/15 03:52:01;;;;;;;2.20;1.60;;;5.80;99.90;;;;;;5032358;28;20302;-88
2023/03/15 03:54:31;;;;;;;1.60;1.50;;;5.80;99.90;;;;;;5031992;28;20286;-80
2023/03/15 03:57:00;;;;;;;1.90;1.80;;;5.70;99.90;;;;;;5031843;28;20238;-80
2023/03/15 03:59:29;;;;;;;2.42;1.83;;;5.70;99.90;;;;;;5032490;28;20261;-80
2023/03/15 04:01:57;;;;;;;1.40;1.30;;;5.60;99.90;;;;;;5032273;28;20233;-80
2023/03/15 04:04:26;;;;;;;2.83;1.70;;;5.60;99.90;;;;;;5035672;28;20270;-79
2023/03/15 04:06:54;;;;;;;3.40;1.90;;;5.50;99.90;;;;;;5034917;28;20207;-80
2023/03/15 04:09:25;;;;;;;1.63;1.38;;;5.50;99.90;;;;;;5035713;28;20238;-80
2023/03/15 04:11:55;;;;;;;2.13;1.73;;;5.60;99.90;;;;;;5035899;28;20213;-80
2023/03/15 04:14:24;;;;;;;6.70;1.85;;;5.50;99.90;;;;;;5035659;28;20237;-88
2023/03/15 04:16:53;;;;;;;1.50;1.40;;;5.60;99.90;;;;;;5034891;28;20203;-87
2023/03/15 04:19:22;;;;;;;1.25;1.15;;;5.50;99.90;;;;;;5035586;28;20301;-89
2023/03/15 04:21:51;;;;;;;2.47;1.38;;;5.60;99.90;;;;;;5035285;28;20217;-88
2023/03/15 04:24:19;;;;;;;3.50;1.70;;;5.60;99.90;;;;;;5035913;28;20241;-89
2023/03/15 04:26:47;;;;;;;1.92;1.55;;;5.60;99.90;;;;;;5035161;28;20211;-88
2023/03/15 04:29:17;;;;;;;2.17;1.30;;;5.60;99.90;;;;;;5035233;28;20210;-88
2023/03/15 04:31:46;;;;;;;1.85;1.40;;;5.50;99.90;;;;;;5035394;28;20230;-89
2023/03/15 04:34:14;;;;;;;1.42;1.20;;;5.40;99.90;;;;;;5035283;28;20198;-89
2023/03/15 04:36:42;;;;;;;1.90;1.30;;;5.40;99.90;;;;;;5034703;28;20217;-88
2023/03/15 04:39:11;;;;;;;2.85;1.70;;;5.40;99.90;;;;;;5035581;28;20211;-89
2023/03/15 04:41:39;;;;;;;1.50;1.30;;;5.50;99.90;;;;;;5035062;28;20253;-88
2023/03/15 04:44:07;;;;;;;2.75;1.70;;;5.40;99.90;;;;;;5034915;28;20226;-89
2023/03/15 04:46:37;;;;;;;;;;;5.40;99.90;;;;;;5035447;28;19956;-89
2023/03/15 04:49:05;;;;;;;;;;;5.30;99.90;;;;;;5035396;28;19952;-90
2023/03/15 04:51:34;;;;;;;;;;;5.30;99.90;;;;;;5036040;28;19971;-89
2023/03/15 04:54:03;;;;;;;7.05;1.65;;;5.30;99.90;;;;;;5034856;28;20111;-89
2023/03/15 04:56:31;;;;;;;21.17;1.85;;;5.20;99.90;;;;;;5035070;28;20214;-89
2023/03/15 04:59:00;;;;;;;1.23;1.10;;;5.10;99.90;;;;;;5034442;28;20202;-89
2023/03/15 05:01:30;;;;;;;2.05;1.20;;;5.10;99.90;;;;;;5034716;28;20234;-88
2023/03/15 05:03:59;;;;;;;4.47;1.60;;;5.10;99.90;;;;;;5034734;28;20229;-90
2023/03/15 05:06:28;;;;;;;3.72;1.00;;;5.20;99.90;;;;;;5034586;28;20267;-90
2023/03/15 05:09:05;;;;;;;1.50;1.23;;;5.20;99.90;;;;;;5034463;28;20264;-81
2023/03/15 05:11:34;;;;;;;5.07;1.35;;;5.10;99.90;;;;;;5034878;28;20206;-89
2023/03/15 05:14:02;;;;;;;1.90;1.25;;;5.10;99.90;;;;;;5034041;28;20230;-89
2023/03/15 05:16:31;;;;;;;4.63;1.40;;;5.10;99.90;;;;;;5035224;28;20203;-89
2023/03/15 05:19:03;;;;;;;2.60;1.15;;;5.00;99.90;;;;;;5034170;28;20206;-89
2023/03/15 05:21:31;;;;;;;2.85;1.40;;;5.00;99.90;;;;;;5033171;28;20230;-88
2023/03/15 05:24:02;;;;;;;1.52;1.08;;;5.00;99.90;;;;;;5034718;28;20222;-89
2023/03/15 05:26:31;;;;;;;9.00;1.70;;;5.00;99.90;;;;;;5034432;28;20198;-89
2023/03/15 05:28:59;;;;;;;1.40;1.23;;;5.00;99.90;;;;;;5033861;28;20214;-80
2023/03/15 05:31:28;;;;;;;5.40;1.42;;;5.00;99.90;;;;;;5034416;28;20261;-88
2023/03/15 05:33:56;;;;;;;3.40;1.52;;;5.00;99.90;;;;;;5034387;28;20206;-88
2023/03/15 05:36:26;;;;;;;1.27;1.10;;;4.90;99.90;;;;;;5034164;28;20202;-88
2023/03/15 05:38:57;;;;;;;1.48;1.25;;;4.90;99.90;;;;;;5033876;28;20211;-88
2023/03/15 05:41:25;;;;;;;4.15;1.90;;;4.90;99.90;;;;;;5034008;28;20292;-89
2023/03/15 05:43:53;;;;;;;1.58;1.42;;;4.90;99.90;;;;;;5034055;28;20264;-88
2023/03/15 05:46:22;;;;;;;2.80;1.52;;;5.00;99.90;;;;;;5033871;28;20210;-80
2023/03/15 05:48:53;;;;;;;9.73;2.10;;;5.00;99.90;;;;;;5033053;28;20198;-88
2023/03/15 05:51:22;;;;;;;1.45;1.20;;;4.90;99.90;;;;;;5033896;28;20226;-88
2023/03/15 05:53:52;;;;;;;4.40;1.90;;;4.90;99.90;;;;;;5034171;28;20233;-89
2023/03/15 05:56:20;;;;;;;3.15;1.17;;;5.00;99.90;;;;;;5034352;28;20297;-89
2023/03/15 05:58:49;;;;;;;7.72;2.22;;;5.00;99.90;;;;;;5034469;28;20210;-80
2023/03/15 06:01:18;;;;;;;3.83;1.75;;;4.90;99.90;;;;;;5034407;28;20310;-88
2023/03/15 06:03:47;;;;;;;1.50;1.35;;;4.90;99.90;;;;;;5034140;28;20223;-80
2023/03/15 06:06:17;;;;;;;1.40;1.30;;;5.00;99.90;;;;;;5035073;28;20206;-81
2023/03/15 06:08:46;;;;;;;1.60;1.33;;;4.90;99.90;;;;;;5033765;28;20206;-89
2023/03/15 06:11:17;;;;;;;3.67;1.83;;;5.00;99.90;;;;;;5033882;28;20253;-80
2023/03/15 06:13:46;;;;;;;1.73;1.52;;;4.90;99.90;;;;;;5034700;28;20206;-89
2023/03/15 06:16:14;;;;;;;3.25;1.40;;;4.90;99.90;;;;;;5034441;28;20211;-88
2023/03/15 06:18:45;;;;;;;3.38;1.27;;;4.90;99.90;;;;;;5033253;28;20233;-88
2023/03/15 06:21:13;;;;;;;2.33;1.05;;;5.00;99.90;;;;;;5032312;28;20230;-89
2023/03/15 06:23:42;;;;;;;1.33;1.10;;;5.00;99.90;;;;;;5033906;28;20284;-80
2023/03/15 06:26:10;;;;;;;4.70;1.60;;;5.10;99.90;;;;;;5032736;28;20233;-81
2023/03/15 06:28:40;;;;;;;2.45;1.48;;;5.10;99.90;;;;;;5033156;28;20207;-80
2023/03/15 06:31:08;;;;;;;1.73;1.20;;;5.10;99.90;;;;;;5033073;28;20282;-87
2023/03/15 06:33:37;;;;;;;1.75;0.98;;;5.20;99.90;;;;;;5033426;28;20294;-88
2023/03/15 06:36:07;;;;;;;2.30;1.55;;;5.20;99.90;;;;;;5032945;28;20365;-88
2023/03/15 06:38:36;;;;;;;2.05;1.38;;;5.20;99.90;;;;;;5032794;28;20209;-88
2023/03/15 06:41:05;;;;;;;4.70;1.65;;;5.20;99.90;;;;;;5032913;28;20232;-88
2023/03/15 06:43:33;;;;;;;1.70;1.17;;;5.30;99.90;;;;;;5033069;28;20313;-88
2023/03/15 06:46:03;;;;;;;5.03;1.30;;;5.40;99.90;;;;;;5033221;28;20297;-88
2023/03/15 06:48:31;;;;;;;3.88;1.20;;;5.40;99.90;;;;;;5032347;28;20248;-88
2023/03/15 06:51:00;;;;;;;3.05;1.27;;;5.50;99.90;;;;;;5033218;28;20249;-89
2023/03/15 06:53:28;;;;;;;2.40;1.55;;;5.50;99.90;;;;;;5033146;28;20213;-90
2023/03/15 06:55:57;;;;;;;2.13;1.38;;;5.50;99.90;;;;;;5031721;28;20190;-91
2023/03/15 06:58:25;;;;;;;1.52;1.17;;;5.50;99.90;;;;;;5032094;28;20198;-90
2023/03/15 07:00:54;;;;;;;1.00;1.00;;;5.50;99.90;;;;;;5033061;28;20234;-89
2023/03/15 07:03:24;;;;;;;2.08;1.20;;;5.60;99.90;;;;;;5033350;28;20266;-81
2023/03/15 07:05:53;;;;;;;3.35;1.60;;;5.60;99.90;;;;;;5032588;28;20301;-81
2023/03/15 07:08:22;;;;;;;2.28;1.20;;;5.50;99.90;;;;;;5032100;28;20237;-81
2023/03/15 07:10:51;;;;;;;1.52;1.38;;;5.50;99.90;;;;;;5031296;28;20334;-81
2023/03/15 07:13:20;;;;;;;1.45;1.20;;;5.40;99.90;;;;;;5032273;28;20229;-81
2023/03/15 07:15:52;;;;;;;2.85;1.60;;;5.50;99.90;;;;;;5032202;28;20226;-87
2023/03/15 07:18:23;;;;;;;2.25;1.48;;;5.60;99.90;;;;;;5031628;28;20194;-86
2023/03/15 07:20:56;;;;;;;1.80;1.15;;;5.60;99.90;;;;;;5032455;28;20249;-87
2023/03/15 07:23:25;;;;;;;1.88;1.48;;;5.70;99.90;;;;;;5032765;28;20242;-86
2023/03/15 07:25:54;;;;;;;1.42;1.00;;;5.70;99.90;;;;;;5032683;28;20249;-86
2023/03/15 07:28:24;;;;;;;1.30;1.20;;;5.80;99.90;;;;;;5030835;28;20217;-86
2023/03/15 07:30:54;;;;;;;3.22;1.90;;;5.80;99.90;;;;;;5032461;28;20234;-86
2023/03/15 07:33:25;;;;;;;1.40;0.90;;;5.70;99.90;;;;;;5032403;28;20216;-87
2023/03/15 07:35:53;;;;;;;2.05;1.52;;;5.80;99.90;;;;;;5020896;28;20202;-87
2023/03/15 07:38:27;;;;;;;5.35;1.80;;;5.80;99.90;;;;;;5034786;28;20206;-88
2023/03/15 07:40:57;;;;;;;2.17;1.40;;;5.90;99.90;;;;;;5036610;28;20316;-81
2023/03/15 07:43:26;;;;;;;3.50;1.40;;;5.80;99.90;;;;;;5035926;28;20240;-86
2023/03/15 07:45:54;;;;;;;2.38;1.00;;;5.90;99.90;;;;;;5036020;28;20218;-87
2023/03/15 07:48:24;;;;;;;2.80;1.60;;;6.00;99.90;;;;;;5035326;28;20214;-87
2023/03/15 07:50:53;;;;;;;1.38;1.27;;;6.00;99.90;;;;;;5035865;28;20253;-86
2023/03/15 07:53:21;;;;;;;3.28;1.58;;;6.00;99.90;;;;;;5036206;28;20202;-87
2023/03/15 07:55:53;;;;;;;13.63;1.80;;;6.10;99.90;;;;;;5035722;28;20198;-87
2023/03/15 07:58:21;;;;;;;2.80;1.30;;;6.20;99.90;;;;;;5035336;28;20288;-81
2023/03/15 08:00:49;;;;;;;1.77;1.48;;;6.30;99.90;;;;;;5035803;28;20294;-80
2023/03/15 08:03:18;;;;;;;1.88;1.45;;;6.40;99.90;;;;;;5035961;28;20210;-81
2023/03/15 08:05:48;;;;;;;2.58;1.60;;;6.40;99.90;;;;;;5035334;28;20229;-87
2023/03/15 08:08:19;;;;;;;2.03;1.33;;;6.50;99.90;;;;;;5034893;28;20290;-86
2023/03/15 08:10:48;;;;;;;2.13;1.20;;;6.60;99.90;;;;;;5035332;28;20230;-86
2023/03/15 08:13:17;;;;;;;1.02;0.90;;;6.60;99.90;;;;;;5034649;28;20191;-81
2023/03/15 08:15:47;;;;;;;3.22;1.58;;;6.50;99.90;;;;;;5042036;28;20266;-84
2023/03/15 08:18:18;;;;;;;2.15;1.55;;;6.50;99.90;;;;;;5035307;28;20233;-88
2023/03/15 08:20:49;;;;;;;1.17;1.08;;;6.40;99.90;;;;;;5053226;28;20222;-93
2023/03/15 08:23:18;;;;;;;3.05;1.30;;;6.40;99.90;;;;;;5055277;28;20228;-89
2023/03/15 08:25:46;;;;;;;1.40;1.27;;;6.50;99.90;;;;;;5056093;28;20268;-86
2023/03/15 08:28:14;;;;;;;1.80;1.52;;;6.60;99.90;;;;;;5055166;28;20245;-89
2023/03/15 08:30:43;;;;;;;4.07;1.23;;;6.70;99.90;;;;;;5055126;28;20253;-81
2023/03/15 08:33:12;;;;;;;2.65;1.30;;;6.70;99.90;;;;;;5036099;28;20298;-81
2023/03/15 08:35:41;;;;;;;;;;;6.80;99.90;;;;;;5035742;28;20102;-80
2023/03/15 08:38:10;;;;;;;;;;;6.90;99.90;;;;;;5035371;28;19970;-81
2023/03/15 08:40:41;;;;;;;;;;;6.90;99.90;;;;;;5035624;28;19965;-89
2023/03/15 08:43:09;;;;;;;;;;;7.00;99.90;;;;;;5035753;28;20031;-90
2023/03/15 08:45:38;;;;;;;;;;;6.90;99.90;;;;;;5035429;28;20005;-81
2023/03/15 08:48:26;;;;;;;;;;;7.10;99.90;;;;;;5034184;28;19969;-81
2023/03/15 08:50:56;;;;;;;;;;;7.30;99.90;;;;;;5035228;28;20053;-81
2023/03/15 08:53:26;;;;;;;;;;;7.40;99.60;;;;;;5036080;28;20064;-89
2023/03/15 08:55:57;;;;;;;;;;;7.50;99.50;;;;;;5035234;28;20006;-90
2023/03/15 08:58:25;;;;;;;;;;;7.60;99.40;;;;;;5020221;28;19962;-86
2023/03/15 09:00:53;;;;;;;;;;;7.80;98.40;;;;;;5035704;28;19975;-91
2023/03/15 09:03:22;;;;;;;;;;;7.90;97.60;;;;;;5035279;28;19964;-87
2023/03/15 09:05:55;;;;;;;;;;;8.00;97.20;;;;;;5033790;28;19969;-87
2023/03/15 09:08:24;;;;;;;5.13;3.22;;;8.00;96.80;;;;;;5022807;28;20014;-88
2023/03/15 09:10:56;;;;;;;3.00;1.50;;;7.80;96.90;;;;;;5034354;28;20258;-88
2023/03/15 09:13:24;;;;;;;2.83;1.33;;;7.90;97.50;;;;;;5034900;28;20203;-88
2023/03/15 09:15:54;;;;;;;3.53;1.80;;;8.00;96.90;;;;;;5034820;28;20194;-88
2023/03/15 09:18:23;;;;;;;1.90;1.45;;;8.10;97.00;;;;;;5034211;28;20201;-88
2023/03/15 09:20:55;;;;;;;2.05;1.67;;;8.60;96.70;;;;;;5033819;28;20210;-88
2023/03/15 09:23:25;;;;;;;1.65;1.27;;;8.80;96.30;;;;;;5034517;28;20218;-81
2023/03/15 09:25:55;;;;;;;2.35;1.35;;;9.00;95.80;;;;;;5035188;28;20432;-81
2023/03/15 09:28:25;;;;;;;2.10;1.65;;;9.40;95.90;;;;;;5034083;28;20245;-81
2023/03/15 09:30:54;;;;;;;1.63;1.35;;;9.80;94.30;;;;;;5034336;28;20213;-81
2023/03/15 09:33:22;;;;;;;1.70;1.60;;;10.00;93.10;;;;;;5034753;28;20234;-81
2023/03/15 09:35:52;;;;;;;1.48;1.10;;;10.20;93.10;;;;;;5034257;28;20204;-89
2023/03/15 09:38:22;;;;;;;8.15;1.73;;;10.40;91.60;;;;;;5033690;28;20214;-86
2023/03/15 09:41:02;;;;;;;1.98;1.52;;;10.10;91.50;;;;;;5034221;28;20308;-89
2023/03/15 09:44:10;;;;;;;1.52;1.35;;;10.00;90.30;;;;;;5033959;28;20210;-79
2023/03/15 09:46:46;;;;;;;1.25;1.15;;;10.10;90.40;;;;;;4992433;28;20238;-80
2023/03/15 09:49:26;;;;;;;3.92;2.03;;;10.40;90.60;;;;;;4991634;28;20211;-85
2023/03/15 09:51:59;;;;;;;2.38;1.65;;;10.60;90.80;;;;;;5025985;28;20265;-84
2023/03/15 09:54:32;;;;;;;1.55;1.42;;;10.60;88.40;;;;;;5050162;28;20198;-85
2023/03/15 09:57:04;;;;;;;1.40;1.30;;;10.30;86.90;;;;;;5049149;28;20208;-85
2023/03/15 09:59:36;;;;;;;4.72;1.52;;;9.90;88.70;;;;;;5049730;28;20248;-85
2023/03/15 10:02:17;;;;;;;2.47;1.27;;;9.60;91.00;;;;;;5043565;28;20195;-85
2023/03/15 10:04:47;;;;;;;2.15;1.52;;;9.50;90.30;;;;;;5034247;28;20206;-85
2023/03/15 10:07:16;;;;;;;1.20;1.05;;;9.50;90.70;;;;;;5033860;28;20245;-85
2023/03/15 10:09:46;;;;;;;2.58;1.58;;;9.30;90.20;;;;;;5031998;28;20222;-79
2023/03/15 10:12:20;;;;;;;11.15;2.25;;;9.40;89.80;;;;;;5044707;28;20208;-79
2023/03/15 10:15:00;;;;;;;4.70;1.80;;;9.70;89.40;;;;;;5029402;28;20293;-79
2023/03/15 10:17:39;;;;;;;10.02;1.63;;;10.10;89.20;;;;;;5030581;28;20204;-86
2023/03/15 10:20:17;;;;;;;3.45;1.63;;;10.50;85.30;;;;;;5032869;28;20089;-86
2023/03/15 10:22:54;;;;;;;1.23;1.15;;;10.50;84.90;;;;;;5033210;28;20229;-86
2023/03/15 10:25:26;;;;;;;1.73;1.35;;;10.60;85.40;;;;;;5032313;28;20200;-86
2023/03/15 10:28:03;;;;;;;1.25;1.17;;;10.90;85.30;;;;;;5032295;28;20248;-86
2023/03/15 10:30:33;;;;;;;3.05;1.27;;;11.50;84.40;;;;;;5032888;28;20237;-85
2023/03/15 10:33:05;;;;;;;1.50;1.40;;;11.00;83.20;;;;;;5032773;28;20198;-85
2023/03/15 10:35:34;;;;;;;3.15;2.13;;;10.80;85.40;;;;;;5032709;28;20237;-85
2023/03/15 10:38:02;;;;;;;2.45;1.73;;;10.90;83.70;;;;;;5032979;28;20275;-85
2023/03/15 10:40:42;;;;;;;1.85;1.60;;;11.10;82.70;;;;;;5032365;28;20266;-85
2023/03/15 10:43:31;;;;;;;2.47;2.05;;;11.10;82.80;;;;;;5032881;28;20309;-83
2023/03/15 10:46:01;;;;;;;1.75;1.15;;;11.20;82.70;;;;;;5032800;28;20246;-85
2023/03/15 10:48:31;;;;;;;2.03;1.38;;;11.10;80.90;;;;;;5032005;28;20256;-85
2023/03/15 10:51:04;;;;;;;1.55;1.10;;;10.70;80.50;;;;;;5026712;28;20273;-85
2023/03/15 10:53:33;;;;;;;3.60;1.50;;;10.10;82.10;;;;;;5027837;28;20209;-85
2023/03/15 10:56:07;;;;;;;1.30;1.20;;;10.10;81.30;;;;;;5032685;28;20194;-84
2023/03/15 10:58:47;;;;;;;2.78;1.80;;;9.70;83.10;;;;;;5031772;28;20202;-84
2023/03/15 11:01:36;;;;;;;1.70;1.05;;;9.80;83.30;;;;;;5029534;28;20294;-85
2023/03/15 11:04:17;;;;;;;4.15;1.35;;;10.20;82.30;;;;;;5052612;28;20214;-85
2023/03/15 11:06:48;;;;;;;2.50;1.48;;;10.50;79.60;;;;;;5044204;28;20218;-84
2023/03/15 11:09:19;;;;;;;2.53;1.20;;;10.60;79.30;;;;;;5013126;28;20286;-79
2023/03/15 11:11:54;;;;;;;3.17;1.65;;;10.60;78.80;;;;;;5012135;28;20265;-79
2023/03/15 11:14:24;;;;;;;;;;;10.70;77.90;;;;;;5052727;28;20119;-79
2023/03/15 11:16:54;;;;;;;5.50;1.48;;;11.10;77.20;;;;;;5051495;28;20271;-78
2023/03/15 11:19:27;;;;;;;2.47;1.70;;;11.10;74.80;;;;;;5052066;28;20263;-79
2023/03/15 11:21:58;;;;;;;4.38;1.52;;;11.10;75.40;;;;;;5033273;28;20234;-86
2023/03/15 11:24:27;;;;;;;;;;;11.00;76.50;;;;;;5032196;28;20068;-86
2023/03/15 11:27:00;;;;;;;1.55;1.40;;;11.30;77.60;;;;;;5031869;28;20234;-86
2023/03/15 11:29:31;;;;;;;2.33;1.38;;;11.30;76.40;;;;;;5031963;28;20252;-86
2023/03/15 11:32:01;;;;;;;4.90;1.95;;;11.00;76.40;;;;;;5036070;28;20219;-86
2023/03/15 11:34:44;;;;;;;1.38;1.27;;;10.80;76.00;;;;;;5052262;28;20205;-86
2023/03/15 11:37:17;;;;;;;6.55;2.20;;;10.70;76.40;;;;;;5032491;28;20198;-90
2023/03/15 11:39:52;;;;;;;3.22;1.20;;;10.40;76.00;;;;;;5032079;28;20226;-80
2023/03/15 11:42:33;;;;;;;1.35;1.20;;;10.10;73.60;;;;;;5031896;28;20320;-94
2023/03/15 11:45:15;;;;;;;11.48;1.83;;;10.00;74.60;;;;;;5032892;28;20229;-90
2023/03/15 11:47:50;;;;;;;1.48;1.02;;;10.20;74.40;;;;;;5029476;28;20237;-79
2023/03/15 11:50:19;;;;;;;4.13;1.52;;;10.30;73.80;;;;;;5032164;28;20225;-90
2023/03/15 11:52:51;;;;;;;2.22;1.48;;;10.40;74.20;;;;;;5032264;28;20283;-89
2023/03/15 11:55:24;;;;;;;2.47;1.88;;;10.50;74.60;;;;;;5032021;28;20236;-90
2023/03/15 11:57:53;;;;;;;2.67;1.30;;;10.50;74.10;;;;;;5012193;28;20225;-89
2023/03/15 12:00:51;;;;;;;1.90;1.50;;;10.50;73.40;;;;;;5030416;28;20301;-90
2023/03/15 12:03:42;;;;;;;1.20;1.08;;;10.40;74.00;;;;;;5046616;28;20248;-89
2023/03/15 12:06:36;;;;;;;3.42;1.90;;;10.00;75.90;;;;;;5029931;28;20224;-90
2023/03/15 12:09:37;;;;;;;2.15;1.73;;;9.90;77.20;;;;;;5031315;28;20238;-90
2023/03/15 12:12:27;;;;;;;2.88;2.08;;;9.90;77.30;;;;;;5011967;28;20306;-90
2023/03/15 12:15:07;;;;;;;1.58;1.20;;;10.00;75.70;;;;;;5026730;28;20255;-90
2023/03/15 12:17:37;;;;;;;;;;;10.30;75.10;;;;;;5029730;28;20061;-90
2023/03/15 12:20:13;;;;;;;;;;;10.80;75.10;;;;;;5027129;28;19954;-89
2023/03/15 12:22:44;;;;;;;2.45;1.60;;;11.30;74.00;;;;;;5011706;28;20061;-92
2023/03/15 12:25:16;;;;;;;2.45;1.83;;;11.30;72.20;;;;;;5032431;28;20202;-80
2023/03/15 12:27:47;;;;;;;;;;;11.30;71.40;;;;;;5034098;28;20137;-79
2023/03/15 12:30:21;;;;;;;2.25;1.73;;;11.30;72.50;;;;;;5041553;28;20214;-80
2023/03/15 12:32:52;;;;;;;;;;;11.40;73.00;;;;;;5035412;28;20121;-91
2023/03/15 12:35:24;;;;;;;2.03;1.80;;;11.60;72.50;;;;;;5035165;28;19921;-90
2023/03/15 12:37:53;;;;;;;;;;;11.50;70.90;;;;;;5033997;28;20147;-90
2023/03/15 12:40:47;;;;;;;;;;;11.60;71.00;;;;;;5035616;28;19988;-91
2023/03/15 12:43:15;;;;;;;;;;;11.80;70.80;;;;;;5040220;28;19921;-92
2023/03/15 12:45:45;;;;;;;;;;;12.00;69.40;;;;;;5035497;28;19967;-92
2023/03/15 12:48:26;;;;;;;;;;;12.30;67.80;;;;;;5034703;28;19956;-92
2023/03/15 12:50:57;;;;;;;;;;;12.40;66.60;;;;;;5034287;28;20002;-91
2023/03/15 12:53:36;;;;;;;;;;;12.90;68.10;;;;;;5035346;28;19962;-90
2023/03/15 12:56:22;;;;;;;;;;;13.50;66.30;;;;;;5032219;28;19931;-91
2023/03/15 12:58:53;;;;;;;;;;;13.80;64.80;;;;;;5029215;28;19939;-91
2023/03/15 13:01:24;;;;;;;;;;;14.00;63.30;;;;;;5035339;28;19961;-91
2023/03/15 13:03:55;;;;;;;;;;;13.90;63.20;;;;;;5045885;28;19935;-91
2023/03/15 13:06:33;;;;;;;;;;;13.40;62.20;;;;;;5047254;28;20078;-91
2023/03/15 13:09:03;;;;;;;;;;;13.10;61.80;;;;;;5054710;28;19973;-90
2023/03/15 13:11:33;;;;;;;;;;;13.10;61.60;;;;;;5016484;28;19958;-82
2023/03/15 13:14:08;;;;;;;;;;;13.70;61.40;;;;;;5034977;28;19952;-82
2023/03/15 13:16:42;;;;;;;;;;;13.80;61.00;;;;;;5034466;28;19974;-82
2023/03/15 13:19:21;;;;;;;2.35;1.85;;;13.20;61.20;;;;;;5034229;28;20109;-82
2023/03/15 13:21:58;;;;;;;;;;;12.60;61.30;;;;;;5034829;28;20084;-82
2023/03/15 13:24:32;;;;;;;;;;;12.60;61.60;;;;;;5034630;28;20012;-82
2023/03/15 13:27:07;;;;;;;2.25;1.50;;;12.90;62.10;;;;;;5029558;28;20288;-81